Time;durP1;ratioP1;P1;durP2;ratioP2;P2;SDS_P1;SDS_P2;PMS_P1;PMS_P2;Temp;Humidity;BMP_temperature;BMP_pressure;BME280_temperature;BME280_humidity;BME280_pressure;Samples;Min_cycle;Max_cycle;Signal;HPM_P1;HPM_P2
2023/03/28 00:01:45;;;;;;;11.63;6.90;;;1.30;99.90;;;;;;5094069;28;20207;-67
2023/03/28 00:04:11;;;;;;;10.97;7.07;;;1.30;99.90;;;;;;5095242;28;20169;-67
2023/03/28 00:06:37;;;;;;;12.47;7.33;;;1.30;99.90;;;;;;5095654;28;20173;-67
2023/03/28 00:09:07;;;;;;;9.43;6.83;;;1.20;99.90;;;;;;5095293;28;20526;-67
2023/03/28 00:11:33;;;;;;;12.70;6.77;;;1.20;99.90;;;;;;5094028;28;20180;-67
2023/03/28 00:14:00;;;;;;;21.87;6.60;;;1.20;99.90;;;;;;5094100;28;20185;-67
2023/03/28 00:16:30;;;;;;;9.40;6.87;;;1.10;99.90;;;;;;5093666;28;20181;-68
2023/03/28 00:18:59;;;;;;;8.37;7.47;;;1.10;99.90;;;;;;5095343;28;20693;-68
2023/03/28 00:21:30;;;;;;;10.70;6.73;;;1.10;99.90;;;;;;5094746;28;20201;-68
2023/03/28 00:24:00;;;;;;;17.40;6.83;;;1.00;99.90;;;;;;5095376;28;20181;-67
2023/03/28 00:26:28;;;;;;;12.93;7.00;;;1.00;99.90;;;;;;5095510;28;20149;-67
2023/03/28 00:28:55;;;;;;;9.13;7.17;;;1.00;99.90;;;;;;5095330;28;20197;-67
2023/03/28 00:31:22;;;;;;;11.50;7.30;;;1.10;99.90;;;;;;5095195;28;20184;-67
2023/03/28 00:33:48;;;;;;;9.53;7.10;;;1.00;99.90;;;;;;5093769;28;20181;-68
2023/03/28 00:36:22;;;;;;;13.03;7.43;;;1.00;99.90;;;;;;5093579;28;20174;-67
2023/03/28 00:38:49;;;;;;;10.70;7.70;;;0.90;99.90;;;;;;5095355;28;20193;-67
2023/03/28 00:41:17;;;;;;;8.47;7.40;;;0.90;99.90;;;;;;5093424;28;20177;-67
2023/03/28 00:43:45;;;;;;;10.83;7.53;;;0.90;99.90;;;;;;5094780;28;20176;-67
2023/03/28 00:46:36;;;;;;;9.30;7.50;;;0.90;99.90;;;;;;5094894;28;20173;-67
2023/03/28 00:49:12;;;;;;;15.07;7.70;;;0.90;99.90;;;;;;5091278;28;20582;-67
2023/03/28 00:51:41;;;;;;;11.10;7.10;;;0.90;99.90;;;;;;5094547;28;20252;-67
2023/03/28 00:54:11;;;;;;;16.87;8.20;;;0.90;99.90;;;;;;5093388;28;20211;-67
2023/03/28 00:56:40;;;;;;;17.00;7.67;;;0.90;99.90;;;;;;5094399;28;20661;-67
2023/03/28 00:59:11;;;;;;;12.17;7.80;;;0.90;99.90;;;;;;5092844;28;20233;-67
2023/03/28 01:01:37;;;;;;;14.23;8.27;;;0.80;99.90;;;;;;5094513;28;20228;-67
2023/03/28 01:04:05;;;;;;;13.97;7.70;;;0.80;99.90;;;;;;5094153;28;20181;-67
2023/03/28 01:06:35;;;;;;;10.43;7.77;;;0.80;99.90;;;;;;5094200;28;20165;-67
2023/03/28 01:09:06;;;;;;;13.70;8.10;;;0.80;99.90;;;;;;5094424;28;20204;-67
2023/03/28 01:11:35;;;;;;;9.90;7.87;;;0.80;99.90;;;;;;5094320;28;20168;-68
2023/03/28 01:14:03;;;;;;;16.83;8.07;;;0.80;99.90;;;;;;5092804;28;20226;-68
2023/03/28 01:16:32;;;;;;;10.47;7.60;;;0.80;99.90;;;;;;5093760;28;20181;-67
2023/03/28 01:19:02;;;;;;;17.97;8.50;;;0.80;99.90;;;;;;5093978;28;20261;-68
2023/03/28 01:21:30;;;;;;;11.23;7.97;;;0.80;99.90;;;;;;5094417;28;20200;-68
2023/03/28 01:24:28;;;;;;;18.27;9.03;;;0.70;99.90;;;;;;5094025;28;20264;-67
2023/03/28 01:27:06;;;;;;;11.20;8.17;;;0.70;99.90;;;;;;5094185;28;20627;-67
2023/03/28 01:29:49;;;;;;;15.53;8.60;;;0.70;99.90;;;;;;5093680;28;20197;-68
2023/03/28 01:32:51;;;;;;;18.03;8.60;;;0.70;99.90;;;;;;5092793;28;20168;-67
2023/03/28 01:35:29;;;;;;;13.57;8.30;;;0.70;99.90;;;;;;5086707;28;20207;-67
2023/03/28 01:38:06;;;;;;;11.63;7.57;;;0.70;99.90;;;;;;5093600;28;20657;-67
2023/03/28 01:40:47;;;;;;;11.40;7.40;;;0.70;99.90;;;;;;5093828;28;20161;-67
2023/03/28 01:43:36;;;;;;;11.37;7.50;;;0.70;99.90;;;;;;5092372;28;20660;-68
2023/03/28 01:46:26;;;;;;;9.70;7.93;;;0.70;99.90;;;;;;5092207;28;20622;-67
2023/03/28 01:49:15;;;;;;;13.77;7.77;;;0.70;99.90;;;;;;5093737;28;20193;-67
2023/03/28 01:51:44;;;;;;;8.50;7.63;;;0.60;99.90;;;;;;5093855;28;20162;-67
2023/03/28 01:54:38;;;;;;;10.97;7.67;;;0.60;99.90;;;;;;5094009;28;20184;-65
2023/03/28 01:57:16;;;;;;;17.97;8.33;;;0.60;99.90;;;;;;5093667;28;20161;-65
2023/03/28 02:00:11;;;;;;;14.73;8.77;;;0.60;99.90;;;;;;5093437;28;20283;-65
2023/03/28 02:02:50;;;;;;;16.93;8.53;;;0.60;99.90;;;;;;5093961;28;20189;-65
2023/03/28 02:05:18;;;;;;;18.37;8.30;;;0.60;99.90;;;;;;5093772;28;20161;-65
2023/03/28 02:07:45;;;;;;;16.27;8.47;;;0.60;99.90;;;;;;5093606;28;20169;-66
2023/03/28 02:10:14;;;;;;;22.63;8.83;;;0.50;99.90;;;;;;5092042;28;20185;-65
2023/03/28 02:12:47;;;;;;;12.83;8.90;;;0.50;99.90;;;;;;5093353;28;20343;-65
2023/03/28 02:15:16;;;;;;;13.07;9.10;;;0.50;99.90;;;;;;5093335;28;20226;-65
2023/03/28 02:17:49;;;;;;;12.63;8.90;;;0.50;99.90;;;;;;5092087;28;20181;-66
2023/03/28 02:20:18;;;;;;;17.77;9.80;;;0.50;99.90;;;;;;5093826;28;20169;-65
2023/03/28 02:22:52;;;;;;;11.93;8.50;;;0.50;99.90;;;;;;5093172;28;20205;-65
2023/03/28 02:25:19;;;;;;;14.17;8.77;;;0.50;99.90;;;;;;5093669;28;20153;-65
2023/03/28 02:27:48;;;;;;;19.13;9.30;;;0.40;99.90;;;;;;5091926;28;20178;-66
2023/03/28 02:30:14;;;;;;;16.07;9.00;;;0.50;99.90;;;;;;5091926;28;20271;-66
2023/03/28 02:32:42;;;;;;;12.43;8.70;;;0.40;99.90;;;;;;5093515;28;20379;-65
2023/03/28 02:35:09;;;;;;;14.53;9.30;;;0.40;99.90;;;;;;5093437;28;20180;-65
2023/03/28 02:37:55;;;;;;;21.40;9.27;;;0.40;99.90;;;;;;5093203;28;20174;-65
2023/03/28 02:40:47;;;;;;;16.57;9.23;;;0.40;99.90;;;;;;5092803;28;20197;-65
2023/03/28 02:43:44;;;;;;;18.10;9.47;;;0.40;99.90;;;;;;5093552;28;20201;-65
2023/03/28 02:46:45;;;;;;;21.83;10.23;;;0.30;99.90;;;;;;5077412;28;20611;-66
2023/03/28 02:49:21;;;;;;;11.10;9.70;;;0.30;99.90;;;;;;5095397;28;20296;-65
2023/03/28 02:51:57;;;;;;;16.53;10.10;;;0.30;99.90;;;;;;5096604;28;20165;-67
2023/03/28 02:54:35;;;;;;;16.00;10.03;;;0.30;99.90;;;;;;5097298;28;20252;-65
2023/03/28 02:57:09;;;;;;;13.00;9.33;;;0.20;99.90;;;;;;5096572;28;20676;-66
2023/03/28 02:59:52;;;;;;;13.73;9.37;;;0.20;99.90;;;;;;5096454;28;20197;-66
2023/03/28 03:02:20;;;;;;;13.43;9.90;;;0.20;99.90;;;;;;5096730;28;20286;-65
2023/03/28 03:04:49;;;;;;;16.50;9.57;;;0.20;99.90;;;;;;5096774;28;20585;-66
2023/03/28 03:07:17;;;;;;;22.07;10.97;;;0.20;99.90;;;;;;5096294;28;20179;-65
2023/03/28 03:09:45;;;;;;;12.23;10.40;;;0.20;99.90;;;;;;5096940;28;20203;-65
2023/03/28 03:12:11;;;;;;;18.60;11.10;;;0.10;99.90;;;;;;5096616;28;20185;-65
2023/03/28 03:14:37;;;;;;;19.23;10.63;;;0.20;99.90;;;;;;5095008;28;20282;-65
2023/03/28 03:17:05;;;;;;;17.33;10.90;;;0.20;99.90;;;;;;5094906;28;20181;-65
2023/03/28 03:19:31;;;;;;;17.33;10.73;;;0.20;99.90;;;;;;5096246;28;20205;-65
2023/03/28 03:21:58;;;;;;;14.97;11.20;;;0.20;99.90;;;;;;5096378;28;20678;-65
2023/03/28 03:24:27;;;;;;;17.70;12.20;;;0.20;99.90;;;;;;5096448;28;20169;-65
2023/03/28 03:26:53;;;;;;;20.07;10.73;;;0.10;99.90;;;;;;5096331;28;20169;-65
2023/03/28 03:29:18;;;;;;;18.57;11.23;;;0.20;99.90;;;;;;5096580;28;20281;-65
2023/03/28 03:31:44;;;;;;;19.30;10.73;;;0.10;99.90;;;;;;5094651;28;20205;-65
2023/03/28 03:34:10;;;;;;;17.67;11.60;;;0.10;99.90;;;;;;5095898;28;20238;-65
2023/03/28 03:36:36;;;;;;;14.83;10.90;;;0.00;99.90;;;;;;5095850;28;20173;-65
2023/03/28 03:39:02;;;;;;;24.70;12.73;;;0.00;99.90;;;;;;5095871;28;20219;-67
2023/03/28 03:41:28;;;;;;;17.37;11.43;;;0.00;99.90;;;;;;5095675;28;20177;-66
2023/03/28 03:43:54;;;;;;;20.70;12.10;;;0.00;99.90;;;;;;5095824;28;20520;-67
2023/03/28 03:46:20;;;;;;;16.67;10.60;;;0.00;99.90;;;;;;5094637;28;20205;-67
2023/03/28 03:48:46;;;;;;;16.57;11.03;;;0.00;99.90;;;;;;5096082;28;20195;-67
2023/03/28 03:51:11;;;;;;;21.90;11.83;;;0.00;99.90;;;;;;5096331;28;20208;-67
2023/03/28 03:53:38;;;;;;;19.40;11.43;;;0.00;99.90;;;;;;5099281;28;20196;-68
2023/03/28 03:56:05;;;;;;;20.90;11.23;;;0.00;99.90;;;;;;5097202;28;20188;-67
2023/03/28 03:58:31;;;;;;;18.03;12.63;;;0.00;99.90;;;;;;5097299;28;20216;-67
2023/03/28 04:00:56;;;;;;;23.23;12.20;;;0.00;99.90;;;;;;5096490;28;20192;-67
2023/03/28 04:03:23;;;;;;;20.37;12.20;;;0.00;99.90;;;;;;5094668;28;20208;-67
2023/03/28 04:05:48;;;;;;;17.50;11.90;;;0.00;99.90;;;;;;5095614;28;20188;-67
2023/03/28 04:08:14;;;;;;;17.67;11.97;;;0.10;99.90;;;;;;5094125;28;20658;-67
2023/03/28 04:10:41;;;;;;;19.53;12.23;;;0.10;99.90;;;;;;5095585;28;20342;-67
2023/03/28 04:13:07;;;;;;;20.47;12.83;;;0.00;99.90;;;;;;5095861;28;20253;-67
2023/03/28 04:15:33;;;;;;;19.90;10.77;;;0.00;99.90;;;;;;5095032;28;20217;-67
2023/03/28 04:17:58;;;;;;;17.17;10.87;;;0.00;99.90;;;;;;5093849;28;20185;-67
2023/03/28 04:20:25;;;;;;;18.20;11.30;;;0.00;99.90;;;;;;5095419;28;20177;-67
2023/03/28 04:22:52;;;;;;;20.70;12.33;;;0.00;99.90;;;;;;5095027;28;20673;-67
2023/03/28 04:25:20;;;;;;;21.23;12.57;;;-0.10;99.90;;;;;;5095063;28;20165;-67
2023/03/28 04:27:46;;;;;;;22.67;12.20;;;-0.10;99.90;;;;;;5094996;28;20173;-67
2023/03/28 04:30:14;;;;;;;16.50;12.80;;;-0.10;99.90;;;;;;5095535;28;20181;-67
2023/03/28 04:32:40;;;;;;;21.03;12.27;;;-0.10;99.90;;;;;;5095574;28;20181;-68
2023/03/28 04:35:07;;;;;;;20.33;12.33;;;-0.10;99.90;;;;;;5096681;28;20169;-67
2023/03/28 04:37:36;;;;;;;22.30;13.23;;;-0.10;99.90;;;;;;5095012;28;20252;-68
2023/03/28 04:40:09;;;;;;;15.13;11.63;;;-0.20;99.90;;;;;;5093855;28;20571;-67
2023/03/28 04:42:36;;;;;;;21.13;13.50;;;-0.20;99.90;;;;;;5096190;28;20221;-69
2023/03/28 04:45:03;;;;;;;21.87;13.17;;;-0.20;99.90;;;;;;5094539;28;20629;-69
2023/03/28 04:47:29;;;;;;;19.83;13.17;;;-0.20;99.90;;;;;;5094738;28;20521;-69
2023/03/28 04:49:55;;;;;;;20.47;13.07;;;-0.20;99.90;;;;;;5094582;28;20196;-69
2023/03/28 04:52:21;;;;;;;22.83;13.43;;;-0.20;99.90;;;;;;5093244;28;20701;-69
2023/03/28 04:54:46;;;;;;;31.40;14.17;;;-0.20;99.90;;;;;;5094420;28;20175;-69
2023/03/28 04:57:14;;;;;;;29.27;14.57;;;-0.20;99.90;;;;;;5094479;28;20541;-67
2023/03/28 04:59:40;;;;;;;23.63;14.53;;;-0.20;99.90;;;;;;5094213;28;20283;-67
2023/03/28 05:02:06;;;;;;;24.67;14.27;;;-0.20;99.90;;;;;;5094561;28;20248;-67
2023/03/28 05:04:31;;;;;;;33.73;14.23;;;-0.20;99.90;;;;;;5093057;28;20165;-67
2023/03/28 05:06:57;;;;;;;18.80;13.80;;;-0.20;99.90;;;;;;5092688;28;20710;-67
2023/03/28 05:09:23;;;;;;;20.47;14.37;;;-0.10;99.90;;;;;;5093956;28;20284;-67
2023/03/28 05:11:49;;;;;;;26.17;13.27;;;-0.10;99.90;;;;;;5092958;28;20188;-67
2023/03/28 05:14:15;;;;;;;22.20;14.30;;;-0.10;99.90;;;;;;5092664;28;20181;-67
2023/03/28 05:16:41;;;;;;;23.73;15.03;;;-0.10;99.90;;;;;;5092591;28;20234;-67
2023/03/28 05:19:08;;;;;;;22.30;14.40;;;-0.10;99.90;;;;;;5092708;28;20201;-67
2023/03/28 05:21:35;;;;;;;27.47;14.30;;;-0.10;99.90;;;;;;5093856;28;20184;-67
2023/03/28 05:24:00;;;;;;;22.07;14.33;;;-0.10;99.90;;;;;;5093815;28;20538;-67
2023/03/28 05:26:26;;;;;;;26.30;14.83;;;-0.10;99.90;;;;;;5092578;28;20184;-67
2023/03/28 05:28:53;;;;;;;19.10;14.40;;;-0.20;99.90;;;;;;5093737;28;20197;-67
2023/03/28 05:31:18;;;;;;;26.10;14.80;;;-0.10;99.90;;;;;;5093471;28;20169;-67
2023/03/28 05:33:44;;;;;;;29.10;14.43;;;-0.10;99.90;;;;;;5093978;28;20545;-67
2023/03/28 05:36:11;;;;;;;26.20;16.43;;;-0.10;99.90;;;;;;5094212;28;20641;-67
2023/03/28 05:38:37;;;;;;;33.00;16.97;;;0.00;99.90;;;;;;5092454;28;20208;-67
2023/03/28 05:41:03;;;;;;;34.33;18.97;;;0.00;99.90;;;;;;5094077;28;20153;-67
2023/03/28 05:43:29;;;;;;;30.77;16.37;;;-0.10;99.90;;;;;;5093793;28;20235;-66
2023/03/28 05:45:55;;;;;;;30.40;16.87;;;-0.10;99.90;;;;;;5093305;28;20633;-67
2023/03/28 05:48:20;;;;;;;26.73;16.53;;;-0.10;99.90;;;;;;5093453;28;20201;-67
2023/03/28 05:50:50;;;;;;;35.83;16.70;;;0.00;99.90;;;;;;5092218;28;20230;-67
2023/03/28 05:53:16;;;;;;;28.80;15.87;;;0.00;99.90;;;;;;5093355;28;20242;-66
2023/03/28 05:55:42;;;;;;;32.70;16.03;;;0.00;99.90;;;;;;5093372;28;20177;-67
2023/03/28 05:58:08;;;;;;;19.83;15.30;;;0.10;99.90;;;;;;5093190;28;20219;-67
2023/03/28 06:00:33;;;;;;;24.67;16.37;;;0.00;99.90;;;;;;5093206;28;20177;-67
2023/03/28 06:03:00;;;;;;;28.97;16.03;;;0.10;99.90;;;;;;5093603;28;20279;-66
2023/03/28 06:05:26;;;;;;;22.83;16.37;;;0.10;99.90;;;;;;5093324;28;20229;-67
2023/03/28 06:07:52;;;;;;;18.60;14.60;;;0.20;99.90;;;;;;5093234;28;20636;-69
2023/03/28 06:10:18;;;;;;;33.00;15.77;;;0.20;99.90;;;;;;5093267;28;20660;-69
2023/03/28 06:12:44;;;;;;;21.20;14.87;;;0.30;99.90;;;;;;5093269;28;20649;-68
2023/03/28 06:15:11;;;;;;;23.93;14.80;;;0.40;99.90;;;;;;5091807;28;20181;-69
2023/03/28 06:17:37;;;;;;;25.13;14.70;;;0.50;99.90;;;;;;5093185;28;20181;-67
2023/03/28 06:20:08;;;;;;;20.23;14.47;;;0.50;99.90;;;;;;5095408;28;20250;-67
2023/03/28 06:22:35;;;;;;;29.20;14.67;;;0.60;99.90;;;;;;5097424;28;20205;-67
2023/03/28 06:25:01;;;;;;;22.40;14.40;;;0.60;99.90;;;;;;5097276;28;20219;-67
2023/03/28 06:27:27;;;;;;;40.30;14.83;;;0.60;99.90;;;;;;5097315;28;20179;-67
2023/03/28 06:29:53;;;;;;;25.83;14.50;;;0.70;99.90;;;;;;5096811;28;20193;-67
2023/03/28 06:32:19;;;;;;;19.03;13.27;;;0.70;99.90;;;;;;5096154;28;20181;-66
2023/03/28 06:34:45;;;;;;;26.57;14.30;;;0.80;99.90;;;;;;5095609;28;20205;-66
2023/03/28 06:37:10;;;;;;;19.90;15.00;;;0.80;99.90;;;;;;5097098;28;20181;-66
2023/03/28 06:39:36;;;;;;;22.83;13.87;;;0.90;99.90;;;;;;5095505;28;20197;-66
2023/03/28 06:42:02;;;;;;;22.40;13.97;;;1.00;99.90;;;;;;5096691;28;20201;-66
2023/03/28 06:44:30;;;;;;;28.17;15.87;;;1.10;99.90;;;;;;5096815;28;20252;-66
2023/03/28 06:46:56;;;;;;;22.93;13.47;;;1.20;99.90;;;;;;5095395;28;20181;-66
2023/03/28 06:49:22;;;;;;;38.80;14.27;;;1.20;99.90;;;;;;5095363;28;20208;-66
2023/03/28 06:51:48;;;;;;;23.23;14.90;;;1.40;99.90;;;;;;5095327;28;20191;-66
2023/03/28 06:54:14;;;;;;;20.77;14.40;;;1.40;99.90;;;;;;5096564;28;20173;-66
2023/03/28 06:56:39;;;;;;;21.80;13.97;;;1.50;99.90;;;;;;5096810;28;20228;-66
2023/03/28 06:59:05;;;;;;;23.67;14.60;;;1.50;99.90;;;;;;5096219;28;20223;-66
2023/03/28 07:01:31;;;;;;;21.93;13.73;;;1.60;99.90;;;;;;5096184;28;20185;-66
2023/03/28 07:03:58;;;;;;;24.07;14.33;;;1.60;99.90;;;;;;5096720;28;20179;-66
2023/03/28 07:06:26;;;;;;;19.93;13.40;;;1.70;99.90;;;;;;5096393;28;20260;-66
2023/03/28 07:08:52;;;;;;;19.33;12.37;;;1.90;99.90;;;;;;5096844;28;20609;-66
2023/03/28 07:11:18;;;;;;;19.73;14.00;;;1.90;99.90;;;;;;5096678;28;20229;-66
2023/03/28 07:13:44;;;;;;;21.47;13.13;;;2.00;99.90;;;;;;5096189;28;20177;-66
2023/03/28 07:16:13;;;;;;;20.63;12.97;;;2.10;99.90;;;;;;5094881;28;20280;-66
2023/03/28 07:18:40;;;;;;;28.47;14.00;;;2.20;99.90;;;;;;5096161;28;20238;-66
2023/03/28 07:21:11;;;;;;;22.50;13.50;;;2.40;99.90;;;;;;5094883;28;20185;-66
2023/03/28 07:23:38;;;;;;;23.63;12.80;;;2.50;99.90;;;;;;5096207;28;20205;-66
2023/03/28 07:26:05;;;;;;;17.03;12.13;;;2.60;99.90;;;;;;5096008;28;20268;-66
2023/03/28 07:28:32;;;;;;;21.97;11.83;;;2.70;99.90;;;;;;5094733;28;20292;-66
2023/03/28 07:31:00;;;;;;;20.87;12.47;;;2.70;99.90;;;;;;5094579;28;20177;-66
2023/03/28 07:33:26;;;;;;;17.30;11.30;;;2.70;99.90;;;;;;5096066;28;20298;-66
2023/03/28 07:35:51;;;;;;;17.03;12.17;;;3.00;99.90;;;;;;5095999;28;20215;-67
2023/03/28 07:38:17;;;;;;;13.77;11.40;;;3.10;99.90;;;;;;5096030;28;20193;-67
2023/03/28 07:40:43;;;;;;;19.93;12.37;;;3.30;99.90;;;;;;5096328;28;20633;-67
2023/03/28 07:43:09;;;;;;;16.80;11.20;;;3.30;99.90;;;;;;5094336;28;20252;-67
2023/03/28 07:45:36;;;;;;;13.77;11.07;;;3.40;99.90;;;;;;5095449;28;20201;-67
2023/03/28 07:48:05;;;;;;;18.13;11.43;;;3.60;99.90;;;;;;5094381;28;20180;-67
2023/03/28 07:50:31;;;;;;;28.63;11.60;;;3.70;99.90;;;;;;5094215;28;20667;-67
2023/03/28 07:52:58;;;;;;;20.77;11.83;;;3.50;99.90;;;;;;5095572;28;20185;-67
2023/03/28 07:55:27;;;;;;;14.03;11.07;;;3.70;99.90;;;;;;5095464;28;20169;-67
2023/03/28 07:57:53;;;;;;;15.63;10.73;;;3.70;99.90;;;;;;5095186;28;20220;-67
2023/03/28 08:00:22;;;;;;;17.20;10.70;;;3.80;99.90;;;;;;5093877;28;20201;-67
2023/03/28 08:02:48;;;;;;;16.33;10.33;;;3.90;99.90;;;;;;5095406;28;20197;-67
2023/03/28 08:05:14;;;;;;;15.90;11.73;;;3.90;99.90;;;;;;5093809;28;20205;-67
2023/03/28 08:07:44;;;;;;;17.33;10.97;;;4.00;99.90;;;;;;5095375;28;20592;-67
2023/03/28 08:10:12;;;;;;;20.03;10.83;;;4.10;99.90;;;;;;5095713;28;20149;-67
2023/03/28 08:12:38;;;;;;;15.60;10.23;;;4.20;99.90;;;;;;5093831;28;20645;-67
2023/03/28 08:15:05;;;;;;;14.00;10.10;;;4.40;99.90;;;;;;5093627;28;20594;-67
2023/03/28 08:17:31;;;;;;;16.03;9.10;;;4.60;99.90;;;;;;5094517;28;20191;-70
2023/03/28 08:19:57;;;;;;;19.77;9.97;;;4.80;99.90;;;;;;5095642;28;20272;-67
2023/03/28 08:22:24;;;;;;;13.53;9.60;;;4.90;99.90;;;;;;5096307;28;20232;-66
2023/03/28 08:24:51;;;;;;;18.70;10.50;;;4.90;99.90;;;;;;5096727;28;20237;-66
2023/03/28 08:27:17;;;;;;;17.13;9.07;;;5.00;99.90;;;;;;5095584;28;20607;-67
2023/03/28 08:29:44;;;;;;;15.73;9.00;;;5.10;99.90;;;;;;5095048;28;20338;-69
2023/03/28 08:32:10;;;;;;;14.57;8.67;;;4.90;99.90;;;;;;5094459;28;20653;-67
2023/03/28 08:34:36;;;;;;;10.57;8.77;;;5.00;99.90;;;;;;5096312;28;20173;-67
2023/03/28 08:37:04;;;;;;;16.30;7.90;;;5.00;99.90;;;;;;5095276;28;20237;-67
2023/03/28 08:39:30;;;;;;;11.50;7.50;;;5.10;99.90;;;;;;5093375;28;20673;-67
2023/03/28 08:42:40;;;;;;;11.07;7.37;;;5.30;99.90;;;;;;5092738;28;20197;-67
2023/03/28 08:45:23;;;;;;;13.03;8.00;;;5.10;99.90;;;;;;5092965;28;20218;-67
2023/03/28 08:48:14;;;;;;;18.07;8.70;;;5.10;99.90;;;;;;5093309;28;20244;-67
2023/03/28 08:50:52;;;;;;;9.20;6.90;;;5.20;99.90;;;;;;5094396;28;20172;-67
2023/03/28 08:53:37;;;;;;;12.63;8.00;;;5.50;99.90;;;;;;5094602;28;20212;-67
2023/03/28 08:56:05;;;;;;;10.83;7.53;;;5.90;99.90;;;;;;5093155;28;20294;-67
2023/03/28 08:58:49;;;;;;;17.20;7.60;;;6.00;99.90;;;;;;5094124;28;20216;-67
2023/03/28 09:01:21;;;;;;;12.77;7.23;;;6.20;99.90;;;;;;5095444;28;20183;-67
2023/03/28 09:03:48;;;;;;;15.43;8.13;;;5.90;99.90;;;;;;5096193;28;20592;-67
2023/03/28 09:06:35;;;;;;;12.83;6.83;;;6.00;99.90;;;;;;5095513;28;20221;-67
2023/03/28 09:09:10;;;;;;;10.63;7.50;;;6.00;99.90;;;;;;5094852;28;20219;-67
2023/03/28 09:11:50;;;;;;;13.30;7.43;;;6.20;99.90;;;;;;5093038;28;20184;-67
2023/03/28 09:14:32;;;;;;;21.07;9.30;;;6.60;99.90;;;;;;5092847;28;20175;-67
2023/03/28 09:17:24;;;;;;;10.93;6.57;;;6.50;99.90;;;;;;5094054;28;20164;-67
2023/03/28 09:19:59;;;;;;;11.63;6.70;;;6.20;99.90;;;;;;5093997;28;20269;-67
2023/03/28 09:22:42;;;;;;;11.07;6.40;;;6.10;99.90;;;;;;5094352;28;20200;-67
2023/03/28 09:25:40;;;;;;;8.60;7.10;;;5.80;99.90;;;;;;5094340;28;20172;-67
2023/03/28 09:28:19;;;;;;;13.03;6.37;;;5.40;99.90;;;;;;5092636;28;20279;-67
2023/03/28 09:30:49;;;;;;;11.23;6.37;;;5.40;99.90;;;;;;5094318;28;20160;-67
2023/03/28 09:33:30;;;;;;;7.00;5.57;;;5.30;99.90;;;;;;5094132;28;20168;-67
2023/03/28 09:35:56;;;;;;;11.03;6.57;;;5.30;99.90;;;;;;5094168;28;20244;-67
2023/03/28 09:38:34;;;;;;;17.80;6.77;;;5.40;99.90;;;;;;5093691;28;20185;-67
2023/03/28 09:41:06;;;;;;;7.93;6.53;;;5.40;99.90;;;;;;5092738;28;20173;-67
2023/03/28 09:43:50;;;;;;;10.77;7.20;;;5.40;99.90;;;;;;5093719;28;20664;-67
2023/03/28 09:46:30;;;;;;;13.47;6.60;;;5.50;99.90;;;;;;5093593;28;20653;-67
2023/03/28 09:48:56;;;;;;;12.87;6.80;;;5.50;99.90;;;;;;5092318;28;20366;-67
2023/03/28 09:51:22;;;;;;;8.87;6.30;;;5.60;99.90;;;;;;5093743;28;20181;-67
2023/03/28 09:53:48;;;;;;;6.87;5.87;;;5.70;99.90;;;;;;5094402;28;20592;-67
2023/03/28 09:56:52;;;;;;;10.60;5.80;;;5.60;99.90;;;;;;5098112;28;20211;-67
2023/03/28 09:59:26;;;;;;;10.63;6.40;;;5.60;99.90;;;;;;5093178;28;20234;-67
2023/03/28 10:01:53;;;;;;;12.93;6.00;;;5.60;99.90;;;;;;5097851;28;20263;-67
2023/03/28 10:04:39;;;;;;;10.77;5.63;;;5.60;99.90;;;;;;5096587;28;20173;-67
2023/03/28 10:07:08;;;;;;;11.50;6.60;;;5.60;99.90;;;;;;5097790;28;20189;-67
2023/03/28 10:09:34;;;;;;;7.50;5.83;;;5.70;99.90;;;;;;5097707;28;20684;-67
2023/03/28 10:12:09;;;;;;;13.47;6.37;;;5.50;99.90;;;;;;5096575;28;20169;-67
2023/03/28 10:14:40;;;;;;;6.30;5.70;;;5.60;99.90;;;;;;5097770;28;20165;-67
2023/03/28 10:17:20;;;;;;;6.87;5.37;;;5.50;99.90;;;;;;5096207;28;20343;-67
2023/03/28 10:19:47;;;;;;;14.60;5.70;;;5.50;99.90;;;;;;5097500;28;20189;-67
2023/03/28 10:22:15;;;;;;;6.77;5.50;;;5.60;99.90;;;;;;5097344;28;20208;-67
2023/03/28 10:24:44;;;;;;;10.77;5.90;;;5.60;99.90;;;;;;5096127;28;20270;-67
2023/03/28 10:27:22;;;;;;;11.30;5.93;;;5.70;99.90;;;;;;5096127;28;20634;-68
2023/03/28 10:29:53;;;;;;;9.13;5.73;;;5.60;99.90;;;;;;5096025;28;20220;-66
2023/03/28 10:32:37;;;;;;;7.90;6.30;;;5.60;99.90;;;;;;5097162;28;20193;-67
2023/03/28 10:35:22;;;;;;;6.27;5.60;;;5.80;99.90;;;;;;5097500;28;20161;-67
2023/03/28 10:37:53;;;;;;;7.13;5.93;;;5.80;99.90;;;;;;5095888;28;20181;-67
2023/03/28 10:40:19;;;;;;;9.97;5.90;;;6.00;99.90;;;;;;5097295;28;20154;-67
2023/03/28 10:42:49;;;;;;;8.87;6.30;;;6.10;99.90;;;;;;5097324;28;20557;-67
2023/03/28 10:45:44;;;;;;;10.27;5.57;;;6.20;99.90;;;;;;5096880;28;20211;-67
2023/03/28 10:48:15;;;;;;;11.03;5.97;;;6.10;99.90;;;;;;5091931;28;20208;-67
2023/03/28 10:50:49;;;;;;;9.63;5.70;;;6.20;99.90;;;;;;5095736;28;20176;-67
2023/03/28 10:53:36;;;;;;;7.40;5.60;;;6.40;99.90;;;;;;5095882;28;20719;-67
2023/03/28 10:56:23;;;;;;;8.00;5.20;;;6.70;99.90;;;;;;5095927;28;20632;-67
2023/03/28 10:59:05;;;;;;;12.63;5.50;;;6.50;99.90;;;;;;5097534;28;20212;-67
2023/03/28 11:01:56;;;;;;;5.97;5.13;;;6.40;99.90;;;;;;5096504;28;20191;-67
2023/03/28 11:04:45;;;;;;;5.63;5.00;;;6.50;99.90;;;;;;5094821;28;20165;-67
2023/03/28 11:07:41;;;;;;;8.77;5.30;;;6.60;99.90;;;;;;5095969;28;20213;-67
2023/03/28 11:10:25;;;;;;;5.93;5.33;;;6.70;99.90;;;;;;5092156;28;20209;-67
2023/03/28 11:13:16;;;;;;;7.13;5.40;;;6.80;99.90;;;;;;5095182;28;20212;-67
2023/03/28 11:15:53;;;;;;;5.97;5.37;;;6.70;99.90;;;;;;5095142;28;20177;-67
2023/03/28 11:18:26;;;;;;;11.77;5.30;;;6.80;99.90;;;;;;5096461;28;20188;-67
2023/03/28 11:21:04;;;;;;;6.73;5.47;;;6.80;99.90;;;;;;5096806;28;20526;-67
2023/03/28 11:23:30;;;;;;;8.83;5.27;;;6.70;99.90;;;;;;5096453;28;20206;-70
2023/03/28 11:26:22;;;;;;;5.57;5.13;;;7.10;99.90;;;;;;5095087;28;20169;-67
2023/03/28 11:29:24;;;;;;;9.00;5.10;;;7.40;99.90;;;;;;5094964;28;20193;-67
2023/03/28 11:32:06;;;;;;;13.83;5.23;;;7.80;99.90;;;;;;5092035;28;20649;-67
2023/03/28 11:35:12;;;;;;;6.13;4.93;;;7.70;99.90;;;;;;5096338;28;20168;-67
2023/03/28 11:37:59;;;;;;;7.47;4.80;;;7.80;99.90;;;;;;5089867;28;20264;-67
2023/03/28 11:40:50;;;;;;;5.33;4.70;;;8.00;99.90;;;;;;5094604;28;20285;-67
2023/03/28 11:43:42;;;;;;;5.30;4.80;;;7.90;99.90;;;;;;5094433;28;20200;-67
2023/03/28 11:46:36;;;;;;;7.73;4.97;;;8.30;99.90;;;;;;5093959;28;20658;-67
2023/03/28 11:49:24;;;;;;;5.43;4.97;;;8.30;99.90;;;;;;5093011;28;20209;-67
2023/03/28 11:52:13;;;;;;;7.20;5.10;;;8.20;99.90;;;;;;5096018;28;20157;-67
2023/03/28 11:54:51;;;;;;;9.53;5.33;;;8.20;99.90;;;;;;5095641;28;20169;-67
2023/03/28 11:57:38;;;;;;;10.17;4.97;;;8.00;99.90;;;;;;5094488;28;20259;-67
2023/03/28 12:00:28;;;;;;;7.90;4.97;;;7.90;99.90;;;;;;5095429;28;20216;-67
2023/03/28 12:03:07;;;;;;;5.73;5.20;;;7.90;99.90;;;;;;5094139;28;20208;-67
2023/03/28 12:05:44;;;;;;;10.13;5.10;;;7.90;99.90;;;;;;5095478;28;20211;-67
2023/03/28 12:08:18;;;;;;;6.47;5.00;;;8.00;99.90;;;;;;5095740;28;20184;-67
2023/03/28 12:10:52;;;;;;;5.20;4.80;;;8.00;99.90;;;;;;5094034;28;20204;-67
2023/03/28 12:13:47;;;;;;;7.30;4.90;;;8.40;99.90;;;;;;5093980;28;20253;-67
2023/03/28 12:16:27;;;;;;;7.50;4.90;;;8.70;99.90;;;;;;5092959;28;20181;-67
2023/03/28 12:19:00;;;;;;;6.23;5.07;;;8.90;99.90;;;;;;5094016;28;20235;-67
2023/03/28 12:21:42;;;;;;;5.33;4.80;;;8.70;99.90;;;;;;5094226;28;20173;-67
2023/03/28 12:24:28;;;;;;;11.77;5.33;;;8.70;99.90;;;;;;5095453;28;20204;-67
2023/03/28 12:27:03;;;;;;;11.63;5.27;;;8.90;99.90;;;;;;5095230;28;20146;-67
2023/03/28 12:29:45;;;;;;;7.40;5.03;;;9.00;99.90;;;;;;5095150;28;20245;-67
2023/03/28 12:32:23;;;;;;;6.73;5.03;;;8.90;99.90;;;;;;5094995;28;20176;-67
2023/03/28 12:35:21;;;;;;;4.93;4.23;;;9.30;99.90;;;;;;5098539;28;20207;-67
2023/03/28 12:38:17;;;;;;;6.13;4.70;;;9.60;99.90;;;;;;5096119;28;20268;-68
2023/03/28 12:40:48;;;;;;;10.17;4.60;;;9.60;99.90;;;;;;5093959;28;20267;-66
2023/03/28 12:43:17;;;;;;;7.70;4.17;;;9.50;99.90;;;;;;5094431;28;20272;-66
2023/03/28 12:45:51;;;;;;;6.73;4.50;;;9.50;99.90;;;;;;5094475;28;20201;-66
2023/03/28 12:48:33;;;;;;;5.07;4.57;;;9.50;99.90;;;;;;5093294;28;20199;-65
2023/03/28 12:51:06;;;;;;;9.57;4.77;;;9.70;99.90;;;;;;5094332;28;20632;-66
2023/03/28 12:53:32;;;;;;;10.07;4.70;;;9.70;99.90;;;;;;5094351;28;20680;-65
2023/03/28 12:55:58;;;;;;;5.10;4.60;;;9.20;99.90;;;;;;5094657;28;20252;-65
2023/03/28 12:58:34;;;;;;;7.30;4.50;;;8.90;99.90;;;;;;5094044;28;20213;-65
2023/03/28 13:01:06;;;;;;;6.43;4.80;;;8.70;99.90;;;;;;5094170;28;20176;-65
2023/03/28 13:03:38;;;;;;;8.40;5.23;;;8.80;99.90;;;;;;5093084;28;20212;-65
2023/03/28 13:06:40;;;;;;;6.03;4.40;;;8.90;99.90;;;;;;5093337;28;20581;-66
2023/03/28 13:09:19;;;;;;;8.93;4.90;;;9.10;99.90;;;;;;5094447;28;20231;-66
2023/03/28 13:12:02;;;;;;;6.20;4.60;;;9.20;99.90;;;;;;5094204;28;20245;-66